sensor_id;sensor_type;location;lat;lon;timestamp;P1;P2;P0
76420;PMS5003;65253;52.354;13.614;2023-02-11T00:00:00;39;26;
76420;PMS5003;65253;52.354;13.614;2023-02-11T00:04:00;40;28;
76420;PMS5003;65253;52.354;13.614;2023-02-11T00:08:00;43;27;
76420;PMS5003;65253;52.354;13.614;2023-02-11T00:12:00;45;31;
76420;PMS5003;65253;52.354;13.614;2023-02-11T00:16:04;39;28;
76420;PMS5003;65253;52.354;13.614;2023-02-11T00:20:00;32;25;
76420;PMS5003;65253;52.354;13.614;2023-02-11T00:24:00;41;31;
76420;PMS5003;65253;52.354;13.614;2023-02-11T00:28:00;40;31;
76420;PMS5003;65253;52.354;13.614;2023-02-11T00:32:00;34;25;
76420;PMS5003;65253;52.354;13.614;2023-02-11T00:36:02;42;28;
76420;PMS5003;65253;52.354;13.614;2023-02-11T00:40:00;35;28;
76420;PMS5003;65253;52.354;13.614;2023-02-11T00:44:00;42;26;
76420;PMS5003;65253;52.354;13.614;2023-02-11T00:48:00;42;27;
76420;PMS5003;65253;52.354;13.614;2023-02-11T00:52:00;46;30;
76420;PMS5003;65253;52.354;13.614;2023-02-11T00:56:00;35;24;
76420;PMS5003;65253;52.354;13.614;2023-02-11T01:00:00;40;27;
76420;PMS5003;65253;52.354;13.614;2023-02-11T01:04:00;41;26;
76420;PMS5003;65253;52.354;13.614;2023-02-11T01:08:00;42;27;
76420;PMS5003;65253;52.354;13.614;2023-02-11T01:12:00;31;23;
76420;PMS5003;65253;52.354;13.614;2023-02-11T01:16:00;46;27;
76420;PMS5003;65253;52.354;13.614;2023-02-11T01:20:00;35;24;
76420;PMS5003;65253;52.354;13.614;2023-02-11T01:24:00;36;30;
76420;PMS5003;65253;52.354;13.614;2023-02-11T01:28:00;43;29;
76420;PMS5003;65253;52.354;13.614;2023-02-11T01:32:00;43;29;
76420;PMS5003;65253;52.354;13.614;2023-02-11T01:36:01;52;29;
76420;PMS5003;65253;52.354;13.614;2023-02-11T01:40:00;45;28;
76420;PMS5003;65253;52.354;13.614;2023-02-11T01:48:00;34;30;
76420;PMS5003;65253;52.354;13.614;2023-02-11T01:52:01;35;29;
76420;PMS5003;65253;52.354;13.614;2023-02-11T01:56:00;44;29;
76420;PMS5003;65253;52.354;13.614;2023-02-11T02:00:03;37;30;
76420;PMS5003;65253;52.354;13.614;2023-02-11T02:04:00;38;22;
76420;PMS5003;65253;52.354;13.614;2023-02-11T02:08:02;42;29;
76420;PMS5003;65253;52.354;13.614;2023-02-11T02:12:00;38;21;
76420;PMS5003;65253;52.354;13.614;2023-02-11T02:16:01;45;29;
76420;PMS5003;65253;52.354;13.614;2023-02-11T02:20:05;35;29;
76420;PMS5003;65253;52.354;13.614;2023-02-11T02:24:03;40;29;
76420;PMS5003;65253;52.354;13.614;2023-02-11T02:28:03;35;23;
76420;PMS5003;65253;52.354;13.614;2023-02-11T02:36:04;43;28;
76420;PMS5003;65253;52.354;13.614;2023-02-11T02:40:01;34;25;
76420;PMS5003;65253;52.354;13.614;2023-02-11T02:44:00;42;34;
76420;PMS5003;65253;52.354;13.614;2023-02-11T02:48:00;43;25;
76420;PMS5003;65253;52.354;13.614;2023-02-11T02:52:06;35;25;
76420;PMS5003;65253;52.354;13.614;2023-02-11T02:56:01;35;26;
76420;PMS5003;65253;52.354;13.614;2023-02-11T03:00:03;44;34;
76420;PMS5003;65253;52.354;13.614;2023-02-11T03:04:02;38;29;
76420;PMS5003;65253;52.354;13.614;2023-02-11T03:08:01;44;29;
76420;PMS5003;65253;52.354;13.614;2023-02-11T03:12:00;40;26;
76420;PMS5003;65253;52.354;13.614;2023-02-11T03:16:01;40;30;
76420;PMS5003;65253;52.354;13.614;2023-02-11T03:20:00;37;25;
76420;PMS5003;65253;52.354;13.614;2023-02-11T03:24:02;45;27;
76420;PMS5003;65253;52.354;13.614;2023-02-11T03:28:02;32;26;
76420;PMS5003;65253;52.354;13.614;2023-02-11T03:32:02;53;28;
76420;PMS5003;65253;52.354;13.614;2023-02-11T03:36:01;38;27;
76420;PMS5003;65253;52.354;13.614;2023-02-11T03:40:02;45;31;
76420;PMS5003;65253;52.354;13.614;2023-02-11T03:44:00;46;26;
76420;PMS5003;65253;52.354;13.614;2023-02-11T03:48:01;48;29;
76420;PMS5003;65253;52.354;13.614;2023-02-11T03:52:00;41;33;
76420;PMS5003;65253;52.354;13.614;2023-02-11T03:56:01;41;30;
76420;PMS5003;65253;52.354;13.614;2023-02-11T04:00:00;49;29;
76420;PMS5003;65253;52.354;13.614;2023-02-11T04:04:00;41;27;
76420;PMS5003;65253;52.354;13.614;2023-02-11T04:08:00;32;31;
76420;PMS5003;65253;52.354;13.614;2023-02-11T04:12:00;35;27;
76420;PMS5003;65253;52.354;13.614;2023-02-11T04:16:00;46;28;
76420;PMS5003;65253;52.354;13.614;2023-02-11T04:20:00;35;26;
76420;PMS5003;65253;52.354;13.614;2023-02-11T04:24:00;30;25;
76420;PMS5003;65253;52.354;13.614;2023-02-11T04:28:00;43;32;
76420;PMS5003;65253;52.354;13.614;2023-02-11T04:32:00;47;28;
76420;PMS5003;65253;52.354;13.614;2023-02-11T04:36:00;47;31;
76420;PMS5003;65253;52.354;13.614;2023-02-11T04:40:00;50;33;
76420;PMS5003;65253;52.354;13.614;2023-02-11T04:44:01;49;31;
76420;PMS5003;65253;52.354;13.614;2023-02-11T04:48:01;54;38;
76420;PMS5003;65253;52.354;13.614;2023-02-11T04:52:00;39;32;
76420;PMS5003;65253;52.354;13.614;2023-02-11T04:56:00;45;27;
76420;PMS5003;65253;52.354;13.614;2023-02-11T05:00:00;36;28;
76420;PMS5003;65253;52.354;13.614;2023-02-11T05:04:00;48;33;
76420;PMS5003;65253;52.354;13.614;2023-02-11T05:08:00;49;27;
76420;PMS5003;65253;52.354;13.614;2023-02-11T05:12:00;50;34;
76420;PMS5003;65253;52.354;13.614;2023-02-11T05:16:00;45;27;
76420;PMS5003;65253;52.354;13.614;2023-02-11T05:20:00;51;34;
76420;PMS5003;65253;52.354;13.614;2023-02-11T05:24:00;38;28;
76420;PMS5003;65253;52.354;13.614;2023-02-11T05:28:00;45;34;
76420;PMS5003;65253;52.354;13.614;2023-02-11T05:32:00;48;34;
76420;PMS5003;65253;52.354;13.614;2023-02-11T05:36:01;38;28;
76420;PMS5003;65253;52.354;13.614;2023-02-11T05:40:00;49;30;
76420;PMS5003;65253;52.354;13.614;2023-02-11T05:44:00;47;33;
76420;PMS5003;65253;52.354;13.614;2023-02-11T05:48:00;47;34;
76420;PMS5003;65253;52.354;13.614;2023-02-11T05:52:00;45;34;
76420;PMS5003;65253;52.354;13.614;2023-02-11T05:56:00;44;33;
76420;PMS5003;65253;52.354;13.614;2023-02-11T06:00:00;47;37;
76420;PMS5003;65253;52.354;13.614;2023-02-11T06:04:00;55;36;
76420;PMS5003;65253;52.354;13.614;2023-02-11T06:08:00;52;38;
76420;PMS5003;65253;52.354;13.614;2023-02-11T06:12:00;55;36;
76420;PMS5003;65253;52.354;13.614;2023-02-11T06:16:01;58;33;
76420;PMS5003;65253;52.354;13.614;2023-02-11T06:20:00;56;37;
76420;PMS5003;65253;52.354;13.614;2023-02-11T06:24:00;52;33;
76420;PMS5003;65253;52.354;13.614;2023-02-11T06:28:00;60;41;
76420;PMS5003;65253;52.354;13.614;2023-02-11T06:32:00;59;35;
76420;PMS5003;65253;52.354;13.614;2023-02-11T06:36:00;51;32;
76420;PMS5003;65253;52.354;13.614;2023-02-11T06:40:00;50;35;
76420;PMS5003;65253;52.354;13.614;2023-02-11T06:44:00;63;39;
76420;PMS5003;65253;52.354;13.614;2023-02-11T06:48:00;47;33;
76420;PMS5003;65253;52.354;13.614;2023-02-11T06:52:00;39;33;
76420;PMS5003;65253;52.354;13.614;2023-02-11T06:56:01;54;37;
76420;PMS5003;65253;52.354;13.614;2023-02-11T07:00:00;58;40;
76420;PMS5003;65253;52.354;13.614;2023-02-11T07:04:00;50;34;
76420;PMS5003;65253;52.354;13.614;2023-02-11T07:08:00;52;34;
76420;PMS5003;65253;52.354;13.614;2023-02-11T07:12:00;50;36;
76420;PMS5003;65253;52.354;13.614;2023-02-11T07:16:02;57;40;
76420;PMS5003;65253;52.354;13.614;2023-02-11T07:20:00;59;36;
76420;PMS5003;65253;52.354;13.614;2023-02-11T07:24:00;51;37;
76420;PMS5003;65253;52.354;13.614;2023-02-11T07:28:00;56;40;
76420;PMS5003;65253;52.354;13.614;2023-02-11T07:32:00;51;41;
76420;PMS5003;65253;52.354;13.614;2023-02-11T07:36:00;50;39;
76420;PMS5003;65253;52.354;13.614;2023-02-11T07:40:00;51;34;
76420;PMS5003;65253;52.354;13.614;2023-02-11T07:44:00;53;36;
76420;PMS5003;65253;52.354;13.614;2023-02-11T07:48:00;48;34;
76420;PMS5003;65253;52.354;13.614;2023-02-11T07:52:00;39;31;
76420;PMS5003;65253;52.354;13.614;2023-02-11T07:56:01;50;36;
76420;PMS5003;65253;52.354;13.614;2023-02-11T08:00:00;46;35;
76420;PMS5003;65253;52.354;13.614;2023-02-11T08:04:00;55;36;
76420;PMS5003;65253;52.354;13.614;2023-02-11T08:08:00;56;39;
76420;PMS5003;65253;52.354;13.614;2023-02-11T08:12:00;48;34;
76420;PMS5003;65253;52.354;13.614;2023-02-11T08:16:01;48;33;
76420;PMS5003;65253;52.354;13.614;2023-02-11T08:20:00;49;34;
76420;PMS5003;65253;52.354;13.614;2023-02-11T08:24:00;37;33;
76420;PMS5003;65253;52.354;13.614;2023-02-11T08:28:00;43;37;
76420;PMS5003;65253;52.354;13.614;2023-02-11T08:32:01;54;37;
76420;PMS5003;65253;52.354;13.614;2023-02-11T08:36:00;46;31;
76420;PMS5003;65253;52.354;13.614;2023-02-11T08:40:00;49;32;
76420;PMS5003;65253;52.354;13.614;2023-02-11T08:44:00;49;36;
76420;PMS5003;65253;52.354;13.614;2023-02-11T08:48:00;49;33;
76420;PMS5003;65253;52.354;13.614;2023-02-11T08:52:00;50;35;
76420;PMS5003;65253;52.354;13.614;2023-02-11T08:56:00;54;31;
76420;PMS5003;65253;52.354;13.614;2023-02-11T09:00:00;45;29;
76420;PMS5003;65253;52.354;13.614;2023-02-11T09:04:00;51;31;
76420;PMS5003;65253;52.354;13.614;2023-02-11T09:08:00;59;39;
76420;PMS5003;65253;52.354;13.614;2023-02-11T09:12:00;47;30;
76420;PMS5003;65253;52.354;13.614;2023-02-11T09:16:01;37;29;
76420;PMS5003;65253;52.354;13.614;2023-02-11T09:20:00;38;32;
76420;PMS5003;65253;52.354;13.614;2023-02-11T09:24:00;38;28;
76420;PMS5003;65253;52.354;13.614;2023-02-11T09:28:00;50;33;
76420;PMS5003;65253;52.354;13.614;2023-02-11T09:32:01;40;29;
76420;PMS5003;65253;52.354;13.614;2023-02-11T09:36:00;47;33;
76420;PMS5003;65253;52.354;13.614;2023-02-11T09:40:00;57;29;
76420;PMS5003;65253;52.354;13.614;2023-02-11T09:44:01;47;31;
76420;PMS5003;65253;52.354;13.614;2023-02-11T09:48:02;38;29;
76420;PMS5003;65253;52.354;13.614;2023-02-11T09:52:02;47;31;
76420;PMS5003;65253;52.354;13.614;2023-02-11T09:56:01;48;33;
76420;PMS5003;65253;52.354;13.614;2023-02-11T10:00:00;51;31;
76420;PMS5003;65253;52.354;13.614;2023-02-11T10:04:02;51;32;
76420;PMS5003;65253;52.354;13.614;2023-02-11T10:08:03;54;35;
76420;PMS5003;65253;52.354;13.614;2023-02-11T10:12:02;42;26;
76420;PMS5003;65253;52.354;13.614;2023-02-11T10:16:03;43;33;
76420;PMS5003;65253;52.354;13.614;2023-02-11T10:20:04;47;34;
76420;PMS5003;65253;52.354;13.614;2023-02-11T10:24:01;39;27;
76420;PMS5003;65253;52.354;13.614;2023-02-11T10:28:00;38;31;
76420;PMS5003;65253;52.354;13.614;2023-02-11T10:32:00;47;29;
76420;PMS5003;65253;52.354;13.614;2023-02-11T10:36:00;47;30;
76420;PMS5003;65253;52.354;13.614;2023-02-11T10:40:00;38;31;
76420;PMS5003;65253;52.354;13.614;2023-02-11T10:44:00;46;30;
76420;PMS5003;65253;52.354;13.614;2023-02-11T10:48:00;39;30;
76420;PMS5003;65253;52.354;13.614;2023-02-11T10:56:00;44;29;
76420;PMS5003;65253;52.354;13.614;2023-02-11T11:00:03;37;25;
76420;PMS5003;65253;52.354;13.614;2023-02-11T11:04:00;36;30;
76420;PMS5003;65253;52.354;13.614;2023-02-11T11:08:01;43;28;
76420;PMS5003;65253;52.354;13.614;2023-02-11T11:12:00;38;31;
76420;PMS5003;65253;52.354;13.614;2023-02-11T11:16:14;42;32;
76420;PMS5003;65253;52.354;13.614;2023-02-11T11:24:01;35;28;
76420;PMS5003;65253;52.354;13.614;2023-02-11T11:28:00;32;26;
76420;PMS5003;65253;52.354;13.614;2023-02-11T11:32:01;37;26;
76420;PMS5003;65253;52.354;13.614;2023-02-11T11:36:02;43;30;
76420;PMS5003;65253;52.354;13.614;2023-02-11T11:40:01;35;27;
76420;PMS5003;65253;52.354;13.614;2023-02-11T11:44:01;44;32;
76420;PMS5003;65253;52.354;13.614;2023-02-11T11:48:01;34;26;
76420;PMS5003;65253;52.354;13.614;2023-02-11T11:52:08;39;25;
76420;PMS5003;65253;52.354;13.614;2023-02-11T11:56:01;36;25;
76420;PMS5003;65253;52.354;13.614;2023-02-11T12:00:00;30;27;
76420;PMS5003;65253;52.354;13.614;2023-02-11T12:08:02;31;24;
76420;PMS5003;65253;52.354;13.614;2023-02-11T12:12:04;33;25;
76420;PMS5003;65253;52.354;13.614;2023-02-11T12:16:03;30;26;
76420;PMS5003;65253;52.354;13.614;2023-02-11T12:20:08;32;23;
76420;PMS5003;65253;52.354;13.614;2023-02-11T12:24:05;37;24;
76420;PMS5003;65253;52.354;13.614;2023-02-11T12:28:04;31;28;
76420;PMS5003;65253;52.354;13.614;2023-02-11T12:32:05;35;23;
76420;PMS5003;65253;52.354;13.614;2023-02-11T12:36:01;33;23;
76420;PMS5003;65253;52.354;13.614;2023-02-11T12:40:02;28;24;
76420;PMS5003;65253;52.354;13.614;2023-02-11T12:44:00;29;19;
76420;PMS5003;65253;52.354;13.614;2023-02-11T12:48:04;27;20;
76420;PMS5003;65253;52.354;13.614;2023-02-11T12:52:03;37;23;
76420;PMS5003;65253;52.354;13.614;2023-02-11T12:56:02;34;25;
76420;PMS5003;65253;52.354;13.614;2023-02-11T13:00:02;29;20;
76420;PMS5003;65253;52.354;13.614;2023-02-11T13:04:03;31;25;
76420;PMS5003;65253;52.354;13.614;2023-02-11T13:08:01;35;24;
76420;PMS5003;65253;52.354;13.614;2023-02-11T13:12:01;32;23;
76420;PMS5003;65253;52.354;13.614;2023-02-11T13:16:01;30;21;
76420;PMS5003;65253;52.354;13.614;2023-02-11T13:20:02;17;15;
76420;PMS5003;65253;52.354;13.614;2023-02-11T13:24:03;22;17;
76420;PMS5003;65253;52.354;13.614;2023-02-11T13:28:02;29;20;
76420;PMS5003;65253;52.354;13.614;2023-02-11T13:32:05;23;19;
76420;PMS5003;65253;52.354;13.614;2023-02-11T13:40:01;21;17;
76420;PMS5003;65253;52.354;13.614;2023-02-11T13:44:02;29;21;
76420;PMS5003;65253;52.354;13.614;2023-02-11T13:48:01;26;17;
76420;PMS5003;65253;52.354;13.614;2023-02-11T13:52:00;21;17;
76420;PMS5003;65253;52.354;13.614;2023-02-11T13:56:07;24;20;
76420;PMS5003;65253;52.354;13.614;2023-02-11T14:00:01;29;22;
76420;PMS5003;65253;52.354;13.614;2023-02-11T14:08:10;26;19;
76420;PMS5003;65253;52.354;13.614;2023-02-11T14:16:02;23;20;
76420;PMS5003;65253;52.354;13.614;2023-02-11T14:20:01;30;18;
76420;PMS5003;65253;52.354;13.614;2023-02-11T14:28:02;29;18;
76420;PMS5003;65253;52.354;13.614;2023-02-11T14:32:01;23;16;
76420;PMS5003;65253;52.354;13.614;2023-02-11T14:36:02;22;17;
76420;PMS5003;65253;52.354;13.614;2023-02-11T14:40:04;26;17;
76420;PMS5003;65253;52.354;13.614;2023-02-11T14:44:02;28;17;
76420;PMS5003;65253;52.354;13.614;2023-02-11T14:48:02;24;19;
76420;PMS5003;65253;52.354;13.614;2023-02-11T14:52:03;22;12;
76420;PMS5003;65253;52.354;13.614;2023-02-11T14:56:00;18;15;
76420;PMS5003;65253;52.354;13.614;2023-02-11T15:00:02;20;16;
76420;PMS5003;65253;52.354;13.614;2023-02-11T15:04:00;20;16;
76420;PMS5003;65253;52.354;13.614;2023-02-11T15:08:01;21;17;
76420;PMS5003;65253;52.354;13.614;2023-02-11T15:12:00;16;14;
76420;PMS5003;65253;52.354;13.614;2023-02-11T15:16:03;16;13;
76420;PMS5003;65253;52.354;13.614;2023-02-11T15:20:00;17;14;
76420;PMS5003;65253;52.354;13.614;2023-02-11T15:24:01;17;14;
76420;PMS5003;65253;52.354;13.614;2023-02-11T15:28:09;13;11;
76420;PMS5003;65253;52.354;13.614;2023-02-11T15:32:02;18;13;
76420;PMS5003;65253;52.354;13.614;2023-02-11T15:36:00;18;14;
76420;PMS5003;65253;52.354;13.614;2023-02-11T15:40:07;18;11;
76420;PMS5003;65253;52.354;13.614;2023-02-11T15:44:00;19;15;
76420;PMS5003;65253;52.354;13.614;2023-02-11T15:48:04;21;17;
76420;PMS5003;65253;52.354;13.614;2023-02-11T15:52:00;18;13;
76420;PMS5003;65253;52.354;13.614;2023-02-11T15:56:02;20;14;
76420;PMS5003;65253;52.354;13.614;2023-02-11T16:00:00;24;18;
76420;PMS5003;65253;52.354;13.614;2023-02-11T16:04:00;14;9;
76420;PMS5003;65253;52.354;13.614;2023-02-11T16:08:11;18;12;
76420;PMS5003;65253;52.354;13.614;2023-02-11T16:12:01;22;16;
76420;PMS5003;65253;52.354;13.614;2023-02-11T16:16:01;14;12;
76420;PMS5003;65253;52.354;13.614;2023-02-11T16:20:00;21;20;
76420;PMS5003;65253;52.354;13.614;2023-02-11T16:24:00;15;14;
76420;PMS5003;65253;52.354;13.614;2023-02-11T16:28:00;14;12;
76420;PMS5003;65253;52.354;13.614;2023-02-11T16:32:04;20;12;
76420;PMS5003;65253;52.354;13.614;2023-02-11T16:36:00;21;14;
76420;PMS5003;65253;52.354;13.614;2023-02-11T16:40:00;12;12;
76420;PMS5003;65253;52.354;13.614;2023-02-11T16:44:00;22;13;
76420;PMS5003;65253;52.354;13.614;2023-02-11T16:48:00;18;13;
76420;PMS5003;65253;52.354;13.614;2023-02-11T16:52:01;16;12;
76420;PMS5003;65253;52.354;13.614;2023-02-11T16:56:00;15;10;
76420;PMS5003;65253;52.354;13.614;2023-02-11T17:00:00;19;14;
76420;PMS5003;65253;52.354;13.614;2023-02-11T17:04:00;13;8;
76420;PMS5003;65253;52.354;13.614;2023-02-11T17:08:00;26;12;
76420;PMS5003;65253;52.354;13.614;2023-02-11T17:12:00;17;14;
76420;PMS5003;65253;52.354;13.614;2023-02-11T17:16:00;15;8;
76420;PMS5003;65253;52.354;13.614;2023-02-11T17:20:00;17;10;
76420;PMS5003;65253;52.354;13.614;2023-02-11T17:24:00;28;19;
76420;PMS5003;65253;52.354;13.614;2023-02-11T17:28:00;20;14;
76420;PMS5003;65253;52.354;13.614;2023-02-11T17:32:00;16;10;
76420;PMS5003;65253;52.354;13.614;2023-02-11T17:36:02;23;19;
76420;PMS5003;65253;52.354;13.614;2023-02-11T17:40:00;18;15;
76420;PMS5003;65253;52.354;13.614;2023-02-11T17:44:00;20;16;
76420;PMS5003;65253;52.354;13.614;2023-02-11T17:48:00;11;10;
76420;PMS5003;65253;52.354;13.614;2023-02-11T17:52:00;16;11;
76420;PMS5003;65253;52.354;13.614;2023-02-11T17:56:00;18;12;
76420;PMS5003;65253;52.354;13.614;2023-02-11T18:00:00;14;12;
76420;PMS5003;65253;52.354;13.614;2023-02-11T18:04:00;19;14;
76420;PMS5003;65253;52.354;13.614;2023-02-11T18:08:00;17;16;
76420;PMS5003;65253;52.354;13.614;2023-02-11T18:12:00;24;14;
76420;PMS5003;65253;52.354;13.614;2023-02-11T18:16:00;13;10;
76420;PMS5003;65253;52.354;13.614;2023-02-11T18:20:00;13;9;
76420;PMS5003;65253;52.354;13.614;2023-02-11T18:24:06;17;12;
76420;PMS5003;65253;52.354;13.614;2023-02-11T18:28:00;19;12;
76420;PMS5003;65253;52.354;13.614;2023-02-11T18:32:00;15;12;
76420;PMS5003;65253;52.354;13.614;2023-02-11T18:36:02;13;12;
76420;PMS5003;65253;52.354;13.614;2023-02-11T18:40:00;11;8;
76420;PMS5003;65253;52.354;13.614;2023-02-11T18:44:00;12;9;
76420;PMS5003;65253;52.354;13.614;2023-02-11T18:48:00;18;10;
76420;PMS5003;65253;52.354;13.614;2023-02-11T18:52:00;11;11;
76420;PMS5003;65253;52.354;13.614;2023-02-11T18:56:04;7;7;
76420;PMS5003;65253;52.354;13.614;2023-02-11T19:00:00;6;6;
76420;PMS5003;65253;52.354;13.614;2023-02-11T19:04:01;10;6;
76420;PMS5003;65253;52.354;13.614;2023-02-11T19:08:00;13;10;
76420;PMS5003;65253;52.354;13.614;2023-02-11T19:12:00;10;9;
76420;PMS5003;65253;52.354;13.614;2023-02-11T19:16:03;16;13;
76420;PMS5003;65253;52.354;13.614;2023-02-11T19:20:00;15;9;
76420;PMS5003;65253;52.354;13.614;2023-02-11T19:24:00;8;8;
76420;PMS5003;65253;52.354;13.614;2023-02-11T19:28:00;12;9;
76420;PMS5003;65253;52.354;13.614;2023-02-11T19:32:01;14;10;
76420;PMS5003;65253;52.354;13.614;2023-02-11T19:36:01;16;12;
76420;PMS5003;65253;52.354;13.614;2023-02-11T19:40:00;6;5;
76420;PMS5003;65253;52.354;13.614;2023-02-11T19:44:00;7;7;
76420;PMS5003;65253;52.354;13.614;2023-02-11T19:48:00;15;13;
76420;PMS5003;65253;52.354;13.614;2023-02-11T19:52:00;7;6;
76420;PMS5003;65253;52.354;13.614;2023-02-11T19:56:00;9;8;
76420;PMS5003;65253;52.354;13.614;2023-02-11T20:00:00;8;7;
76420;PMS5003;65253;52.354;13.614;2023-02-11T20:04:00;8;7;
76420;PMS5003;65253;52.354;13.614;2023-02-11T20:08:00;10;7;
76420;PMS5003;65253;52.354;13.614;2023-02-11T20:12:00;13;8;
76420;PMS5003;65253;52.354;13.614;2023-02-11T20:16:02;10;10;
76420;PMS5003;65253;52.354;13.614;2023-02-11T20:20:00;13;6;
76420;PMS5003;65253;52.354;13.614;2023-02-11T20:24:00;12;7;
76420;PMS5003;65253;52.354;13.614;2023-02-11T20:28:00;7;7;
76420;PMS5003;65253;52.354;13.614;2023-02-11T20:32:01;11;8;
76420;PMS5003;65253;52.354;13.614;2023-02-11T20:36:01;7;6;
76420;PMS5003;65253;52.354;13.614;2023-02-11T20:40:00;9;7;
76420;PMS5003;65253;52.354;13.614;2023-02-11T20:44:01;8;6;
76420;PMS5003;65253;52.354;13.614;2023-02-11T20:48:00;9;8;
76420;PMS5003;65253;52.354;13.614;2023-02-11T20:52:00;7;7;
76420;PMS5003;65253;52.354;13.614;2023-02-11T20:56:01;9;8;
76420;PMS5003;65253;52.354;13.614;2023-02-11T21:00:00;7;7;
76420;PMS5003;65253;52.354;13.614;2023-02-11T21:04:01;11;6;
76420;PMS5003;65253;52.354;13.614;2023-02-11T21:08:00;9;8;
76420;PMS5003;65253;52.354;13.614;2023-02-11T21:12:00;11;6;
76420;PMS5003;65253;52.354;13.614;2023-02-11T21:16:00;9;6;
76420;PMS5003;65253;52.354;13.614;2023-02-11T21:20:00;11;8;
76420;PMS5003;65253;52.354;13.614;2023-02-11T21:24:00;8;6;
76420;PMS5003;65253;52.354;13.614;2023-02-11T21:28:00;8;5;
76420;PMS5003;65253;52.354;13.614;2023-02-11T21:32:00;12;7;
76420;PMS5003;65253;52.354;13.614;2023-02-11T21:36:01;15;9;
76420;PMS5003;65253;52.354;13.614;2023-02-11T21:40:00;5;5;
76420;PMS5003;65253;52.354;13.614;2023-02-11T21:44:00;9;8;
76420;PMS5003;65253;52.354;13.614;2023-02-11T21:48:00;8;6;
76420;PMS5003;65253;52.354;13.614;2023-02-11T21:52:00;10;8;
76420;PMS5003;65253;52.354;13.614;2023-02-11T21:56:01;10;6;
76420;PMS5003;65253;52.354;13.614;2023-02-11T22:00:00;12;8;
76420;PMS5003;65253;52.354;13.614;2023-02-11T22:04:00;10;6;
76420;PMS5003;65253;52.354;13.614;2023-02-11T22:08:00;7;5;
76420;PMS5003;65253;52.354;13.614;2023-02-11T22:12:00;8;5;
76420;PMS5003;65253;52.354;13.614;2023-02-11T22:16:01;6;6;
76420;PMS5003;65253;52.354;13.614;2023-02-11T22:20:00;5;5;
76420;PMS5003;65253;52.354;13.614;2023-02-11T22:24:00;14;7;
76420;PMS5003;65253;52.354;13.614;2023-02-11T22:28:00;8;5;
76420;PMS5003;65253;52.354;13.614;2023-02-11T22:32:00;7;5;
76420;PMS5003;65253;52.354;13.614;2023-02-11T22:36:01;7;5;
76420;PMS5003;65253;52.354;13.614;2023-02-11T22:40:00;8;6;
76420;PMS5003;65253;52.354;13.614;2023-02-11T22:44:00;9;6;
76420;PMS5003;65253;52.354;13.614;2023-02-11T22:48:00;11;6;
76420;PMS5003;65253;52.354;13.614;2023-02-11T22:52:00;9;7;
76420;PMS5003;65253;52.354;13.614;2023-02-11T22:56:01;12;8;
76420;PMS5003;65253;52.354;13.614;2023-02-11T23:00:00;9;4;
76420;PMS5003;65253;52.354;13.614;2023-02-11T23:04:01;8;6;
76420;PMS5003;65253;52.354;13.614;2023-02-11T23:08:00;7;5;
76420;PMS5003;65253;52.354;13.614;2023-02-11T23:12:00;8;5;
76420;PMS5003;65253;52.354;13.614;2023-02-11T23:16:02;7;7;
76420;PMS5003;65253;52.354;13.614;2023-02-11T23:20:00;10;6;
76420;PMS5003;65253;52.354;13.614;2023-02-11T23:24:01;7;7;
76420;PMS5003;65253;52.354;13.614;2023-02-11T23:28:00;5;5;
76420;PMS5003;65253;52.354;13.614;2023-02-11T23:32:00;8;5;
76420;PMS5003;65253;52.354;13.614;2023-02-11T23:36:00;9;6;
76420;PMS5003;65253;52.354;13.614;2023-02-11T23:40:00;10;6;
76420;PMS5003;65253;52.354;13.614;2023-02-11T23:44:00;10;5;
76420;PMS5003;65253;52.354;13.614;2023-02-11T23:48:00;9;7;
76420;PMS5003;65253;52.354;13.614;2023-02-11T23:52:00;14;6;
76420;PMS5003;65253;52.354;13.614;2023-02-11T23:56:04;5;5;
